createdAt,value
2023-03-03T00:00:39.938Z,9.719142
2023-03-03T00:01:39.953Z,9.719162
2023-03-03T00:02:39.947Z,9.719234
2023-03-03T00:03:39.982Z,9.719300
2023-03-03T00:04:39.896Z,9.719150
2023-03-03T00:05:39.880Z,9.719254
2023-03-03T00:06:39.885Z,9.719227
2023-03-03T00:07:39.862Z,9.719304
2023-03-03T00:08:39.884Z,9.719311
2023-03-03T00:09:39.835Z,9.719238
2023-03-03T00:10:39.843Z,9.719270
2023-03-03T00:11:39.845Z,9.719238
2023-03-03T00:12:39.836Z,9.719254
2023-03-03T00:13:39.811Z,9.719275
2023-03-03T00:14:39.812Z,9.719298
2023-03-03T00:15:39.834Z,9.719334
2023-03-03T00:16:39.770Z,9.719254
2023-03-03T00:17:39.766Z,9.719239
2023-03-03T00:18:39.766Z,9.719270
2023-03-03T00:19:39.772Z,9.719313
2023-03-03T00:20:39.742Z,9.719292
2023-03-03T00:21:39.717Z,9.719377
2023-03-03T00:22:39.725Z,9.719300
2023-03-03T00:23:39.715Z,9.719278
2023-03-03T00:24:39.715Z,9.719249
2023-03-03T00:25:39.695Z,9.719477
2023-03-03T00:26:39.698Z,9.719414
2023-03-03T00:27:39.689Z,9.719410
2023-03-03T00:28:39.655Z,9.719345
2023-03-03T00:29:39.646Z,9.719226
2023-03-03T00:30:39.638Z,9.719345
2023-03-03T00:31:39.665Z,9.719305
2023-03-03T00:32:39.621Z,9.719235
2023-03-03T00:33:39.592Z,9.719360
2023-03-03T00:34:39.599Z,9.719360
2023-03-03T00:35:39.618Z,9.719266
2023-03-03T00:36:39.604Z,9.719270
2023-03-03T00:37:39.580Z,9.719309
2023-03-03T00:38:39.566Z,9.719335
2023-03-03T00:39:39.555Z,9.719348
2023-03-03T00:40:39.531Z,9.719338
2023-03-03T00:41:39.549Z,9.719480
2023-03-03T00:42:39.522Z,9.719471
2023-03-03T00:43:39.514Z,9.719298
2023-03-03T00:44:39.497Z,9.719276
2023-03-03T00:45:39.513Z,9.719110
2023-03-03T00:46:39.498Z,9.718947
2023-03-03T00:47:39.469Z,9.719039
2023-03-03T00:48:39.462Z,9.719086
2023-03-03T00:49:39.500Z,9.719127
2023-03-03T00:50:39.441Z,9.719242
2023-03-03T00:51:39.436Z,9.718944
2023-03-03T00:52:39.424Z,9.719155
2023-03-03T00:53:39.448Z,9.719295
2023-03-03T00:54:39.433Z,9.719236
2023-03-03T00:55:39.387Z,9.719213
2023-03-03T00:56:39.390Z,9.719214
2023-03-03T00:57:39.378Z,9.719270
2023-03-03T00:58:39.372Z,9.719282
2023-03-03T00:59:39.364Z,9.719318
2023-03-03T01:00:39.374Z,9.719377
2023-03-03T01:01:39.402Z,9.719503
2023-03-03T01:02:39.411Z,9.719502
2023-03-03T01:03:39.318Z,9.719360
2023-03-03T01:04:39.307Z,9.719394
2023-03-03T01:05:39.316Z,9.719378
2023-03-03T01:06:39.317Z,9.719367
2023-03-03T01:07:39.284Z,9.719348
2023-03-03T01:08:39.295Z,9.719396
2023-03-03T01:09:39.270Z,9.719311
2023-03-03T01:10:39.258Z,9.719330
2023-03-03T01:11:39.253Z,9.719351
2023-03-03T01:12:39.223Z,9.719461
2023-03-03T01:13:39.242Z,9.719393
2023-03-03T01:14:39.224Z,9.719378
2023-03-03T01:18:56.002Z,9.719465
2023-03-03T01:19:55.956Z,9.719357
2023-03-03T01:20:55.920Z,9.719252
2023-03-03T01:21:55.934Z,9.719255
2023-03-03T01:22:55.909Z,9.719298
2023-03-03T01:23:55.921Z,9.719331
2023-03-03T01:24:56.331Z,9.719311
2023-03-03T01:25:55.904Z,9.719311
2023-03-03T01:26:55.861Z,9.719220
2023-03-03T01:27:55.869Z,9.719219
2023-03-03T01:28:55.841Z,9.719219
2023-03-03T01:29:55.837Z,9.719235
2023-03-03T01:30:55.896Z,9.719164
2023-03-03T01:31:55.860Z,9.719187
2023-03-03T01:32:55.806Z,9.719234
2023-03-03T01:33:55.810Z,9.719210
2023-03-03T01:34:55.782Z,9.719180
2023-03-03T01:35:55.856Z,9.719152
2023-03-03T01:36:55.763Z,9.719220
2023-03-03T01:37:55.762Z,9.719203
2023-03-03T01:38:55.747Z,9.719234
2023-03-03T01:39:55.746Z,9.719254
2023-03-03T01:40:55.764Z,9.719338
2023-03-03T01:41:55.718Z,9.719284
2023-03-03T01:42:55.712Z,9.719356
2023-03-03T01:43:55.724Z,9.719353
2023-03-03T01:44:55.688Z,9.719331
2023-03-03T01:45:55.700Z,9.719276
2023-03-03T01:46:55.725Z,9.719119
2023-03-03T01:47:55.656Z,9.719194
2023-03-03T01:48:55.668Z,9.719133
2023-03-03T01:49:55.656Z,9.719166
2023-03-03T01:50:55.640Z,9.719023
2023-03-03T01:51:55.630Z,9.719226
2023-03-03T01:52:55.624Z,9.719205
2023-03-03T01:53:55.617Z,9.718924
2023-03-03T01:54:55.597Z,9.718970
2023-03-03T01:55:55.587Z,9.719716
2023-03-03T01:56:55.569Z,9.719343
2023-03-03T01:57:55.563Z,9.719491
2023-03-03T01:58:55.575Z,9.719760
2023-03-03T01:59:55.538Z,9.719280
2023-03-03T02:00:55.529Z,9.719269
2023-03-03T02:01:55.618Z,9.719391
2023-03-03T02:02:55.599Z,9.719565
2023-03-03T02:03:55.531Z,9.719602
2023-03-03T02:04:55.502Z,9.719428
2023-03-03T02:05:55.488Z,9.719516
2023-03-03T02:06:55.474Z,9.719389
2023-03-03T02:07:55.458Z,9.719387
2023-03-03T02:08:55.466Z,9.719355
2023-03-03T02:09:56.459Z,9.719410
2023-03-03T02:10:55.440Z,9.719361
2023-03-03T02:11:55.431Z,9.719185
2023-03-03T02:12:55.419Z,9.719280
2023-03-03T02:13:55.408Z,9.719321
2023-03-03T02:14:55.420Z,9.719255
2023-03-03T02:15:55.447Z,9.719291
2023-03-03T02:16:55.386Z,9.719340
2023-03-03T02:17:55.369Z,9.719415
2023-03-03T02:18:55.369Z,9.719390
2023-03-03T02:19:55.347Z,9.719422
2023-03-03T02:20:55.364Z,9.719316
2023-03-03T02:21:55.338Z,9.719356
2023-03-03T02:22:55.323Z,9.719372
2023-03-03T02:23:55.320Z,9.719368
2023-03-03T02:24:55.325Z,9.719331
2023-03-03T02:25:56.879Z,9.719337
2023-03-03T02:26:55.285Z,9.719333
2023-03-03T02:27:55.281Z,9.719317
2023-03-03T02:28:55.272Z,9.719280
2023-03-03T02:29:55.277Z,9.719320
2023-03-03T02:30:55.248Z,9.719240
2023-03-03T02:31:55.420Z,9.719391
2023-03-03T02:32:55.245Z,9.719344
2023-03-03T02:33:55.231Z,9.719407
2023-03-03T02:34:55.210Z,9.719379
2023-03-03T02:35:55.297Z,9.719403
2023-03-03T02:36:55.204Z,9.719464
2023-03-03T02:37:55.197Z,9.719482
2023-03-03T02:38:55.217Z,9.719441
2023-03-03T02:39:55.177Z,9.719403
2023-03-03T02:40:55.156Z,9.719468
2023-03-03T02:41:55.165Z,9.719495
2023-03-03T02:42:55.138Z,9.719535
2023-03-03T02:43:55.150Z,9.719572
2023-03-03T02:44:55.124Z,9.719580
2023-03-03T02:45:55.119Z,9.719451
2023-03-03T02:46:55.125Z,9.719431
2023-03-03T02:47:55.085Z,9.719425
2023-03-03T02:48:55.087Z,9.719396
2023-03-03T02:49:55.107Z,9.719311
2023-03-03T02:50:55.063Z,9.719438
2023-03-03T02:51:55.062Z,9.719537
2023-03-03T02:52:55.037Z,9.719626
2023-03-03T02:53:55.039Z,9.719688
2023-03-03T02:54:55.038Z,9.719571
2023-03-03T02:55:55.107Z,9.719564
2023-03-03T02:56:55.005Z,9.719704
2023-03-03T02:57:55.011Z,9.719625
2023-03-03T02:58:54.997Z,9.719762
2023-03-03T02:59:54.982Z,9.719692
2023-03-03T03:00:54.990Z,9.719764
2023-03-03T03:01:54.947Z,9.719563
2023-03-03T03:02:54.936Z,9.719705
2023-03-03T03:03:54.986Z,9.719629
2023-03-03T03:04:54.937Z,9.719738
2023-03-03T03:05:54.904Z,9.719471
2023-03-03T03:06:54.893Z,9.719205
2023-03-03T03:07:54.907Z,9.719137
2023-03-03T03:08:54.882Z,9.719266
2023-03-03T03:09:54.908Z,9.719234
2023-03-03T03:10:54.867Z,9.719134
2023-03-03T03:11:54.855Z,9.719136
2023-03-03T03:12:54.845Z,9.719068
2023-03-03T03:13:54.837Z,9.719095
2023-03-03T03:14:54.872Z,9.719111
2023-03-03T03:15:54.806Z,9.719106
2023-03-03T03:16:54.907Z,9.719139
2023-03-03T03:17:54.802Z,9.719103
2023-03-03T03:18:54.789Z,9.719239
2023-03-03T03:19:54.778Z,9.719284
2023-03-03T03:20:54.770Z,9.719392
2023-03-03T03:21:54.784Z,9.719205
2023-03-03T03:22:54.743Z,9.719085
2023-03-03T03:23:54.729Z,9.718991
2023-03-03T03:24:54.721Z,9.719047
2023-03-03T03:25:54.709Z,9.719033
2023-03-03T03:26:54.720Z,9.719098
2023-03-03T03:27:54.707Z,9.719163
2023-03-03T03:28:54.710Z,9.719147
2023-03-03T03:29:54.659Z,9.719110
2023-03-03T03:30:54.671Z,9.719156
2023-03-03T03:31:54.698Z,9.719246
2023-03-03T03:32:54.658Z,9.719228
2023-03-03T03:33:54.633Z,9.719431
2023-03-03T03:34:54.625Z,9.719835
2023-03-03T03:35:54.645Z,9.719835
2023-03-03T03:36:54.604Z,9.719835
2023-03-03T03:37:54.605Z,9.719835
2023-03-03T03:38:54.600Z,9.719835
2023-03-03T03:39:54.594Z,9.719835
2023-03-03T03:40:54.595Z,9.719835
2023-03-03T03:41:54.559Z,9.719835
2023-03-03T03:42:54.546Z,9.719835
2023-03-03T03:43:54.547Z,9.719835
2023-03-03T03:44:54.526Z,9.719835
2023-03-03T03:45:54.565Z,9.718839
2023-03-03T03:46:54.506Z,9.718836
2023-03-03T03:47:54.504Z,9.718261
2023-03-03T03:48:54.497Z,9.718488
2023-03-03T03:49:55.498Z,9.718488
2023-03-03T03:50:54.464Z,9.718488
2023-03-03T03:51:54.463Z,9.718208
2023-03-03T03:52:54.478Z,9.718826
2023-03-03T03:53:54.449Z,9.718345
2023-03-03T03:54:54.429Z,9.718824
2023-03-03T03:55:54.410Z,9.718824
2023-03-03T03:56:54.429Z,9.718824
2023-03-03T03:57:54.422Z,9.718824
2023-03-03T03:58:54.394Z,9.718824
2023-03-03T03:59:54.401Z,9.718824
2023-03-03T04:00:54.372Z,9.718824
2023-03-03T04:01:54.357Z,9.718824
2023-03-03T04:02:54.530Z,9.718824
2023-03-03T04:03:54.361Z,9.719150
2023-03-03T04:04:54.339Z,9.718948
2023-03-03T04:05:54.343Z,9.719088
2023-03-03T04:06:54.333Z,9.718990
2023-03-03T04:07:54.313Z,9.719115
2023-03-03T04:08:54.297Z,9.719159
2023-03-03T04:09:54.318Z,9.719078
2023-03-03T04:10:54.294Z,9.718867
2023-03-03T04:11:54.272Z,9.719129
2023-03-03T04:12:54.290Z,9.719033
2023-03-03T04:13:54.250Z,9.718899
2023-03-03T04:14:54.268Z,9.718939
2023-03-03T04:15:54.314Z,9.719393
2023-03-03T04:16:54.230Z,9.719194
2023-03-03T04:17:54.240Z,9.719305
2023-03-03T04:18:54.223Z,9.719268
2023-03-03T04:19:54.191Z,9.719367
2023-03-03T04:20:54.213Z,9.719353
2023-03-03T04:21:54.175Z,9.719330
2023-03-03T04:22:54.173Z,9.719344
2023-03-03T04:23:54.156Z,9.719167
2023-03-03T04:24:54.163Z,9.719266
2023-03-03T04:25:54.134Z,9.719002
2023-03-03T04:26:54.140Z,9.719107
2023-03-03T04:27:54.119Z,9.719125
2023-03-03T04:28:54.115Z,9.719347
2023-03-03T04:29:54.121Z,9.719365
2023-03-03T04:30:54.124Z,9.719686
2023-03-03T04:31:54.107Z,9.719485
2023-03-03T04:32:54.073Z,9.719618
2023-03-03T04:33:54.054Z,9.719749
2023-03-03T04:35:05.734Z,9.719639
2023-03-03T04:35:56.088Z,9.719545
2023-03-03T04:36:54.052Z,9.719411
2023-03-03T04:37:54.018Z,9.719227
2023-03-03T04:38:54.019Z,9.719444
2023-03-03T04:39:54.004Z,9.719763
2023-03-03T04:40:53.997Z,9.719417
2023-03-03T04:41:54.006Z,9.719401
2023-03-03T04:42:53.998Z,9.719444
2023-03-03T04:43:53.951Z,9.719245
2023-03-03T04:44:53.955Z,9.719295
2023-03-03T04:45:54.021Z,9.719394
2023-03-03T04:46:53.945Z,9.719454
2023-03-03T04:47:53.935Z,9.719425
2023-03-03T04:48:53.930Z,9.719454
2023-03-03T04:49:53.908Z,9.719534
2023-03-03T04:50:53.894Z,9.719498
2023-03-03T04:51:53.893Z,9.719451
2023-03-03T04:52:53.898Z,9.719517
2023-03-03T04:53:53.890Z,9.719540
2023-03-03T04:54:53.865Z,9.719487
2023-03-03T04:55:53.862Z,9.719440
2023-03-03T04:56:53.845Z,9.719441
2023-03-03T04:57:53.854Z,9.719500
2023-03-03T04:58:53.820Z,9.719489
2023-03-03T04:59:53.808Z,9.719524
2023-03-03T05:00:53.816Z,9.719490
2023-03-03T05:01:53.936Z,9.719516
2023-03-03T05:02:53.773Z,9.719675
2023-03-03T05:03:53.784Z,9.719833
2023-03-03T05:04:53.794Z,9.719495
2023-03-03T05:05:53.742Z,9.719549
2023-03-03T05:06:53.755Z,9.719505
2023-03-03T05:07:53.732Z,9.719444
2023-03-03T05:08:53.723Z,9.719405
2023-03-03T05:09:53.705Z,9.719430
2023-03-03T05:10:53.694Z,9.719466
2023-03-03T05:11:53.723Z,9.719514
2023-03-03T05:12:53.673Z,9.719433
2023-03-03T05:13:53.660Z,9.719446
2023-03-03T05:14:53.668Z,9.719263
2023-03-03T05:15:53.685Z,9.719354
2023-03-03T05:16:53.659Z,9.719393
2023-03-03T05:17:53.628Z,9.719429
2023-03-03T05:18:53.609Z,9.719279
2023-03-03T05:19:54.615Z,9.719307
2023-03-03T05:20:53.589Z,9.719196
2023-03-03T05:21:53.608Z,9.719328
2023-03-03T05:22:53.576Z,9.718797
2023-03-03T05:23:53.574Z,9.719243
2023-03-03T05:24:53.552Z,9.718899
2023-03-03T05:25:53.552Z,9.719448
2023-03-03T05:26:53.531Z,9.720363
2023-03-03T05:27:53.546Z,9.719557
2023-03-03T05:28:53.503Z,9.719251
2023-03-03T05:29:54.524Z,9.718981
2023-03-03T05:30:53.509Z,9.719247
2023-03-03T05:31:54.495Z,9.719388
2023-03-03T05:32:53.488Z,9.719694
2023-03-03T05:33:53.467Z,9.719425
2023-03-03T05:34:53.495Z,9.719359
2023-03-03T05:35:53.463Z,9.719263
2023-03-03T05:36:53.438Z,9.719304
2023-03-03T05:37:53.455Z,9.719282
2023-03-03T05:38:53.430Z,9.719191
2023-03-03T05:39:53.412Z,9.718994
2023-03-03T05:40:53.392Z,9.719054
2023-03-03T05:41:53.393Z,9.719106
2023-03-03T05:42:53.468Z,9.719049
2023-03-03T05:43:53.376Z,9.719064
2023-03-03T05:44:53.355Z,9.719090
2023-03-03T05:45:53.363Z,9.719173
2023-03-03T05:46:53.397Z,9.719277
2023-03-03T05:47:53.350Z,9.719307
2023-03-03T05:48:53.348Z,9.719236
2023-03-03T05:49:53.310Z,9.719119
2023-03-03T05:50:53.299Z,9.719141
2023-03-03T05:51:53.296Z,9.719177
2023-03-03T05:52:53.296Z,9.719160
2023-03-03T05:53:56.002Z,9.719181
2023-03-03T05:54:53.264Z,9.719212
2023-03-03T05:55:53.254Z,9.719201
2023-03-03T05:56:53.257Z,9.719252
2023-03-03T05:57:53.234Z,9.719193
2023-03-03T05:58:53.248Z,9.719255
2023-03-03T05:59:53.224Z,9.719310
2023-03-03T06:00:53.203Z,9.719307
2023-03-03T06:01:53.282Z,9.719301
2023-03-03T06:02:53.238Z,9.719319
2023-03-03T06:03:53.196Z,9.719248
2023-03-03T06:04:53.166Z,9.719265
2023-03-03T06:05:53.166Z,9.719298
2023-03-03T06:06:53.147Z,9.719304
2023-03-03T06:07:53.211Z,9.719335
2023-03-03T06:08:54.509Z,9.719262
2023-03-03T06:09:53.124Z,9.719226
2023-03-03T06:10:53.115Z,9.719357
2023-03-03T06:11:53.105Z,9.719322
2023-03-03T06:12:53.106Z,9.719331
2023-03-03T06:13:53.087Z,9.719511
2023-03-03T06:14:53.079Z,9.719366
2023-03-03T06:15:53.083Z,9.719077
2023-03-03T06:16:53.042Z,9.719036
2023-03-03T06:17:53.039Z,9.719208
2023-03-03T06:18:53.029Z,9.719255
2023-03-03T06:19:53.024Z,9.719476
2023-03-03T06:20:53.025Z,9.719370
2023-03-03T06:21:53.006Z,9.719369
2023-03-03T06:22:52.987Z,9.719194
2023-03-03T06:23:53.010Z,9.719345
2023-03-03T06:24:53.016Z,9.719314
2023-03-03T06:25:52.965Z,9.719099
2023-03-03T06:26:52.947Z,9.719239
2023-03-03T06:27:52.946Z,9.719235
2023-03-03T06:28:52.922Z,9.719252
2023-03-03T06:29:52.933Z,9.719235
2023-03-03T06:30:52.902Z,9.719316
2023-03-03T06:31:54.042Z,9.719261
2023-03-03T06:32:52.894Z,9.719262
2023-03-03T06:33:52.902Z,9.719316
2023-03-03T06:34:52.875Z,9.719277
2023-03-03T06:35:52.952Z,9.719421
2023-03-03T06:36:52.863Z,9.719384
2023-03-03T06:37:52.832Z,9.719554
2023-03-03T06:38:52.865Z,9.719349
2023-03-03T06:39:52.853Z,9.717943
2023-03-03T06:40:52.875Z,9.718582
2023-03-03T06:41:52.883Z,9.719041
2023-03-03T06:42:52.785Z,9.719286
2023-03-03T06:43:52.783Z,9.719152
2023-03-03T06:44:52.808Z,9.719207
2023-03-03T06:45:52.806Z,9.719329
2023-03-03T06:46:52.747Z,9.719275
2023-03-03T06:47:52.745Z,9.719129
2023-03-03T06:48:52.731Z,9.719127
2023-03-03T06:49:52.738Z,9.719172
2023-03-03T06:50:52.723Z,9.719083
2023-03-03T06:51:52.700Z,9.719129
2023-03-03T06:52:52.706Z,9.719127
2023-03-03T06:53:52.682Z,9.719146
2023-03-03T06:54:52.665Z,9.719089
2023-03-03T06:55:52.665Z,9.719155
2023-03-03T06:56:52.681Z,9.719269
2023-03-03T06:57:52.682Z,9.719391
2023-03-03T06:58:52.636Z,9.719307
2023-03-03T06:59:52.619Z,9.719130
2023-03-03T07:00:52.646Z,9.719107
2023-03-03T07:01:52.604Z,9.718817
2023-03-03T07:02:52.612Z,9.719039
2023-03-03T07:03:52.607Z,9.719096
2023-03-03T07:04:52.571Z,9.719192
2023-03-03T07:05:52.571Z,9.719316
2023-03-03T07:06:52.587Z,9.719158
2023-03-03T07:07:52.562Z,9.719109
2023-03-03T07:08:52.551Z,9.719213
2023-03-03T07:09:52.551Z,9.719230
2023-03-03T07:10:52.541Z,9.719250
2023-03-03T07:11:52.568Z,9.719377
2023-03-03T07:12:52.498Z,9.719429
2023-03-03T07:13:52.489Z,9.719372
2023-03-03T07:14:52.519Z,9.719250
2023-03-03T07:15:52.489Z,9.719217
2023-03-03T07:17:24.386Z,9.719272
2023-03-03T07:17:52.478Z,9.719203
2023-03-03T07:18:52.451Z,9.719260
2023-03-03T07:19:52.464Z,9.719004
2023-03-03T07:20:52.457Z,9.719074
2023-03-03T07:21:52.430Z,9.719272
2023-03-03T07:22:52.442Z,9.719205
2023-03-03T07:23:52.429Z,9.719188
2023-03-03T07:24:53.119Z,9.719121
2023-03-03T07:25:52.410Z,9.719203
2023-03-03T07:26:52.374Z,9.719156
2023-03-03T07:27:52.360Z,9.719176
2023-03-03T07:28:52.372Z,9.719396
2023-03-03T07:29:52.346Z,9.719377
2023-03-03T07:30:52.411Z,9.719209
2023-03-03T07:31:52.342Z,9.719211
2023-03-03T07:32:52.315Z,9.719289
2023-03-03T07:33:52.313Z,9.719250
2023-03-03T07:34:52.300Z,9.719162
2023-03-03T07:35:52.347Z,9.719150
2023-03-03T07:36:52.278Z,9.719169
2023-03-03T07:37:52.278Z,9.718980
2023-03-03T07:38:52.261Z,9.719033
2023-03-03T07:39:52.260Z,9.719103
2023-03-03T07:40:52.280Z,9.719200
2023-03-03T07:41:52.260Z,9.719166
2023-03-03T07:42:52.250Z,9.718947
2023-03-03T07:43:52.247Z,9.719049
2023-03-03T07:44:52.259Z,9.719090
2023-03-03T07:45:52.249Z,9.719213
2023-03-03T07:46:52.188Z,9.719112
2023-03-03T07:47:52.204Z,9.719074
2023-03-03T07:48:52.177Z,9.719031
2023-03-03T07:49:52.181Z,9.719021
2023-03-03T07:50:52.144Z,9.719041
2023-03-03T07:51:52.137Z,9.719127
2023-03-03T07:52:52.154Z,9.719015
2023-03-03T07:53:52.144Z,9.718846
2023-03-03T07:54:52.107Z,9.718837
2023-03-03T07:55:52.097Z,9.719028
2023-03-03T07:56:52.133Z,9.718974
2023-03-03T07:57:52.094Z,9.718942
2023-03-03T07:58:52.124Z,9.718843
2023-03-03T07:59:52.073Z,9.719312
2023-03-03T08:00:52.104Z,9.719230
2023-03-03T08:01:52.035Z,9.718967
2023-03-03T08:02:52.077Z,9.718946
2023-03-03T08:03:52.035Z,9.718942
2023-03-03T08:04:52.104Z,9.719193
2023-03-03T08:05:52.037Z,9.719346
2023-03-03T08:06:52.007Z,9.719143
2023-03-03T08:07:52.000Z,9.719114
2023-03-03T08:08:51.991Z,9.719167
2023-03-03T08:09:52.041Z,9.718876
2023-03-03T08:10:51.987Z,9.719054
2023-03-03T08:11:51.946Z,9.719299
2023-03-03T08:12:52.010Z,9.719170
2023-03-03T08:13:51.924Z,9.719135
2023-03-03T08:14:51.947Z,9.719279
2023-03-03T08:15:51.912Z,9.719359
2023-03-03T08:16:51.898Z,9.719130
2023-03-03T08:17:51.883Z,9.719051
2023-03-03T08:18:51.871Z,9.719111
2023-03-03T08:19:51.869Z,9.719012
2023-03-03T08:20:51.868Z,9.719094
2023-03-03T08:21:51.851Z,9.719088
2023-03-03T08:22:51.836Z,9.718959
2023-03-03T08:23:51.834Z,9.718868
2023-03-03T08:24:51.805Z,9.719079
2023-03-03T08:25:51.825Z,9.719166
2023-03-03T08:26:51.789Z,9.719229
2023-03-03T08:27:51.800Z,9.719017
2023-03-03T08:28:51.800Z,9.719254
2023-03-03T08:29:51.776Z,9.719300
2023-03-03T08:30:54.412Z,9.719211
2023-03-03T08:31:52.817Z,9.719227
2023-03-03T08:32:51.781Z,9.719155
2023-03-03T08:33:51.728Z,9.719122
2023-03-03T08:34:51.704Z,9.719315
2023-03-03T08:35:51.713Z,9.719286
2023-03-03T08:36:51.689Z,9.719190
2023-03-03T08:37:51.683Z,9.719172
2023-03-03T08:38:51.682Z,9.719268
2023-03-03T08:39:51.666Z,9.719339
2023-03-03T08:40:51.643Z,9.719172
2023-03-03T08:41:51.643Z,9.719113
2023-03-03T08:42:51.624Z,9.719183
2023-03-03T08:43:51.665Z,9.719230
2023-03-03T08:44:51.607Z,9.719232
2023-03-03T08:45:51.605Z,9.719136
2023-03-03T08:46:51.710Z,9.719130
2023-03-03T08:47:51.601Z,9.719241
2023-03-03T08:48:51.575Z,9.719278
2023-03-03T08:49:51.569Z,9.719187
2023-03-03T08:50:51.559Z,9.719131
2023-03-03T08:51:51.564Z,9.719169
2023-03-03T08:52:51.551Z,9.719259
2023-03-03T08:53:51.576Z,9.719252
2023-03-03T08:54:51.541Z,9.719173
2023-03-03T08:55:51.547Z,9.719237
2023-03-03T08:56:51.525Z,9.719189
2023-03-03T08:57:51.504Z,9.719156
2023-03-03T08:59:02.273Z,9.719125
2023-03-03T08:59:53.471Z,9.719250
2023-03-03T09:00:52.174Z,9.719276
2023-03-03T09:01:51.467Z,9.719211
2023-03-03T09:02:51.466Z,9.719046
2023-03-03T09:03:51.430Z,9.719076
2023-03-03T09:04:51.502Z,9.719239
2023-03-03T09:05:51.409Z,9.719331
2023-03-03T09:06:51.412Z,9.719287
2023-03-03T09:07:51.389Z,9.719144
2023-03-03T09:08:51.397Z,9.719139
2023-03-03T09:09:51.391Z,9.719306
2023-03-03T09:10:51.373Z,9.719480
2023-03-03T09:11:51.349Z,9.719348
2023-03-03T09:12:51.352Z,9.719443
2023-03-03T09:13:51.354Z,9.719386
2023-03-03T09:14:51.342Z,9.719365
2023-03-03T09:15:51.331Z,9.719336
2023-03-03T09:16:51.329Z,9.719245
2023-03-03T09:17:51.295Z,9.719271
2023-03-03T09:18:51.320Z,9.719316
2023-03-03T09:19:51.287Z,9.719280
2023-03-03T09:20:51.288Z,9.719191
2023-03-03T09:21:51.260Z,9.719310
2023-03-03T09:22:51.245Z,9.719377
2023-03-03T09:23:52.277Z,9.719355
2023-03-03T09:24:51.226Z,9.719242
2023-03-03T09:25:51.212Z,9.719255
2023-03-03T09:26:51.230Z,9.719235
2023-03-03T09:27:51.223Z,9.719435
2023-03-03T09:28:51.191Z,9.719390
2023-03-03T09:29:51.176Z,9.719416
2023-03-03T09:30:51.176Z,9.719324
2023-03-03T09:31:51.270Z,9.719358
2023-03-03T09:32:51.149Z,9.719356
2023-03-03T09:33:51.140Z,9.719315
2023-03-03T09:34:51.132Z,9.719381
2023-03-03T09:35:51.166Z,9.719368
2023-03-03T09:36:51.113Z,9.719235
2023-03-03T09:37:51.128Z,9.719259
2023-03-03T09:38:51.101Z,9.719373
2023-03-03T09:39:51.121Z,9.719455
2023-03-03T09:40:51.072Z,9.719418
2023-03-03T09:41:51.098Z,9.719357
2023-03-03T09:42:51.076Z,9.719404
2023-03-03T09:43:51.045Z,9.719308
2023-03-03T09:44:51.044Z,9.719340
2023-03-03T09:45:51.042Z,9.719300
2023-03-03T09:46:51.068Z,9.719305
2023-03-03T09:47:51.022Z,9.719226
2023-03-03T09:48:50.995Z,9.719295
2023-03-03T09:49:51.337Z,9.719342
2023-03-03T09:50:51.054Z,9.719144
2023-03-03T09:51:51.013Z,9.719177
2023-03-03T09:52:50.949Z,9.719246
2023-03-03T09:53:50.965Z,9.719359
2023-03-03T09:54:50.941Z,9.719340
2023-03-03T09:55:50.939Z,9.719308
2023-03-03T09:56:50.910Z,9.719241
2023-03-03T09:58:04.478Z,9.719244
2023-03-03T09:58:51.894Z,9.719293
2023-03-03T09:59:50.902Z,9.719214
2023-03-03T10:00:50.893Z,9.719128
2023-03-03T10:01:50.856Z,9.719178
2023-03-03T10:02:53.180Z,9.719155
2023-03-03T10:03:52.256Z,9.719098
2023-03-03T10:04:50.849Z,9.718972
2023-03-03T10:05:50.854Z,9.718939
2023-03-03T10:06:50.820Z,9.719188
2023-03-03T10:07:50.797Z,9.718863
2023-03-03T10:08:50.841Z,9.718908
2023-03-03T10:09:50.793Z,9.718867
2023-03-03T10:10:51.330Z,9.718858
2023-03-03T10:11:50.775Z,9.719004
2023-03-03T10:12:50.761Z,9.719015
2023-03-03T10:13:50.748Z,9.718963
2023-03-03T10:14:50.737Z,9.718891
2023-03-03T10:15:50.753Z,9.719050
2023-03-03T10:16:50.848Z,9.719122
2023-03-03T10:17:50.901Z,9.719208
2023-03-03T10:18:51.055Z,9.719437
2023-03-03T10:19:51.320Z,9.719357
2023-03-03T10:20:52.804Z,9.719412
2023-03-03T10:21:52.199Z,9.719329
2023-03-03T10:22:50.679Z,9.719138
2023-03-03T10:23:50.664Z,9.719199
2023-03-03T10:24:50.638Z,9.719327
2023-03-03T10:25:50.657Z,9.719339
2023-03-03T10:27:05.302Z,9.719461
2023-03-03T10:27:52.609Z,9.719419
2023-03-03T10:28:50.624Z,9.719459
2023-03-03T10:29:50.593Z,9.719373
2023-03-03T10:31:04.117Z,9.719331
2023-03-03T10:31:52.687Z,9.719297
2023-03-03T10:32:50.759Z,9.719321
2023-03-03T10:33:50.645Z,9.719296
2023-03-03T10:34:50.547Z,9.719291
2023-03-03T10:36:05.963Z,9.719321
2023-03-03T10:36:52.566Z,9.719284
2023-03-03T10:37:50.513Z,9.719328
2023-03-03T10:38:50.533Z,9.719317
2023-03-03T10:39:50.491Z,9.719296
2023-03-03T10:40:50.523Z,9.719400
2023-03-03T10:41:50.509Z,9.719439
2023-03-03T10:42:50.469Z,9.719397
2023-03-03T10:43:50.462Z,9.719241
2023-03-03T10:44:50.450Z,9.719382
2023-03-03T10:45:50.462Z,9.719323
2023-03-03T10:46:50.463Z,9.719438
2023-03-03T10:47:50.430Z,9.719340
2023-03-03T10:48:50.411Z,9.719255
2023-03-03T10:49:50.409Z,9.719328
2023-03-03T10:50:50.388Z,9.719265
2023-03-03T10:51:50.379Z,9.719209
2023-03-03T10:52:50.464Z,9.719248
2023-03-03T10:53:50.387Z,9.719351
2023-03-03T10:54:50.382Z,9.719304
2023-03-03T10:55:50.386Z,9.719195
2023-03-03T10:56:53.419Z,9.719337
2023-03-03T10:57:51.354Z,9.719247
2023-03-03T10:58:50.361Z,9.719268
2023-03-03T10:59:50.322Z,9.719298
2023-03-03T11:00:50.313Z,9.719221
2023-03-03T11:01:50.299Z,9.719210
2023-03-03T11:02:50.308Z,9.719175
2023-03-03T11:03:50.267Z,9.719241
2023-03-03T11:04:50.279Z,9.719303
2023-03-03T11:05:50.277Z,9.719298
2023-03-03T11:06:50.255Z,9.719290
2023-03-03T11:07:50.254Z,9.719265
2023-03-03T11:08:50.224Z,9.719190
2023-03-03T11:09:50.206Z,9.719241
2023-03-03T11:10:50.217Z,9.719212
2023-03-03T11:11:50.201Z,9.719182
2023-03-03T11:12:50.187Z,9.719246
2023-03-03T11:13:50.170Z,9.719297
2023-03-03T11:14:50.156Z,9.719273
2023-03-03T11:15:50.160Z,9.719237
2023-03-03T11:16:50.213Z,9.719303
2023-03-03T11:17:50.128Z,9.719329
2023-03-03T11:18:50.123Z,9.719300
2023-03-03T11:19:50.141Z,9.719275
2023-03-03T11:20:50.103Z,9.719193
2023-03-03T11:21:50.098Z,9.719318
2023-03-03T11:22:50.072Z,9.719238
2023-03-03T11:23:50.083Z,9.719252
2023-03-03T11:24:50.081Z,9.719248
2023-03-03T11:25:50.066Z,9.719227
2023-03-03T11:26:50.072Z,9.719193
2023-03-03T11:27:50.045Z,9.719246
2023-03-03T11:28:50.043Z,9.719254
2023-03-03T11:29:50.047Z,9.719214
2023-03-03T11:30:50.083Z,9.719222
2023-03-03T11:31:50.079Z,9.719383
2023-03-03T11:32:50.028Z,9.719170
2023-03-03T11:33:49.977Z,9.719182
2023-03-03T11:34:49.987Z,9.719197
2023-03-03T11:35:49.990Z,9.719388
2023-03-03T11:36:49.951Z,9.719404
2023-03-03T11:37:49.950Z,9.719315
2023-03-03T11:38:49.936Z,9.719322
2023-03-03T11:39:49.918Z,9.719337
2023-03-03T11:40:49.922Z,9.719105
2023-03-03T11:41:49.909Z,9.718988
2023-03-03T11:42:49.868Z,9.719252
2023-03-03T11:43:50.898Z,9.719146
2023-03-03T11:44:49.868Z,9.719240
2023-03-03T11:45:49.955Z,9.719174
2023-03-03T11:46:49.853Z,9.719093
2023-03-03T11:47:49.828Z,9.718894